sensor_id;sensor_type;location;lat;lon;timestamp;P1;durP1;ratioP1;P2;durP2;ratioP2
80619;SDS011;69979;53.682;-2.690;2024-01-10T00:01:34;2;;;2;;
80619;SDS011;69979;53.682;-2.690;2024-01-10T00:04:00;1;;;1;;
80619;SDS011;69979;53.682;-2.690;2024-01-10T00:06:26;2;;;2;;
80619;SDS011;69979;53.682;-2.690;2024-01-10T00:08:52;2;;;2;;
80619;SDS011;69979;53.682;-2.690;2024-01-10T00:11:17;2;;;2;;
80619;SDS011;69979;53.682;-2.690;2024-01-10T00:13:42;4;;;2;;
80619;SDS011;69979;53.682;-2.690;2024-01-10T00:16:07;2;;;2;;
80619;SDS011;69979;53.682;-2.690;2024-01-10T00:18:32;2;;;2;;
80619;SDS011;69979;53.682;-2.690;2024-01-10T00:20:57;2;;;2;;
80619;SDS011;69979;53.682;-2.690;2024-01-10T00:23:22;2;;;2;;
80619;SDS011;69979;53.682;-2.690;2024-01-10T00:25:47;1;;;1;;
80619;SDS011;69979;53.682;-2.690;2024-01-10T00:28:12;1;;;1;;
80619;SDS011;69979;53.682;-2.690;2024-01-10T00:30:38;4;;;4;;
80619;SDS011;69979;53.682;-2.690;2024-01-10T00:33:04;2;;;2;;
80619;SDS011;69979;53.682;-2.690;2024-01-10T00:35:30;1;;;1;;
80619;SDS011;69979;53.682;-2.690;2024-01-10T00:37:55;1;;;1;;
80619;SDS011;69979;53.682;-2.690;2024-01-10T00:40:21;1;;;1;;
80619;SDS011;69979;53.682;-2.690;2024-01-10T00:42:47;2;;;2;;
80619;SDS011;69979;53.682;-2.690;2024-01-10T00:45:12;1;;;1;;
80619;SDS011;69979;53.682;-2.690;2024-01-10T00:47:38;1;;;1;;
80619;SDS011;69979;53.682;-2.690;2024-01-10T00:50:04;0;;;0;;
80619;SDS011;69979;53.682;-2.690;2024-01-10T00:52:30;2;;;1;;
80619;SDS011;69979;53.682;-2.690;2024-01-10T00:54:56;1;;;1;;
80619;SDS011;69979;53.682;-2.690;2024-01-10T00:57:22;1;;;1;;
80619;SDS011;69979;53.682;-2.690;2024-01-10T00:59:47;1;;;1;;
80619;SDS011;69979;53.682;-2.690;2024-01-10T01:02:13;0;;;0;;
80619;SDS011;69979;53.682;-2.690;2024-01-10T01:04:39;2;;;1;;
80619;SDS011;69979;53.682;-2.690;2024-01-10T01:07:05;1;;;1;;
80619;SDS011;69979;53.682;-2.690;2024-01-10T01:09:31;2;;;2;;
80619;SDS011;69979;53.682;-2.690;2024-01-10T01:11:57;1;;;1;;
80619;SDS011;69979;53.682;-2.690;2024-01-10T01:14:22;1;;;1;;
80619;SDS011;69979;53.682;-2.690;2024-01-10T01:16:48;2;;;1;;
80619;SDS011;69979;53.682;-2.690;2024-01-10T01:19:14;1;;;1;;
80619;SDS011;69979;53.682;-2.690;2024-01-10T01:21:40;1;;;1;;
80619;SDS011;69979;53.682;-2.690;2024-01-10T01:24:05;1;;;1;;
80619;SDS011;69979;53.682;-2.690;2024-01-10T01:26:31;0;;;0;;
80619;SDS011;69979;53.682;-2.690;2024-01-10T01:28:57;1;;;1;;
80619;SDS011;69979;53.682;-2.690;2024-01-10T01:31:23;1;;;0;;
80619;SDS011;69979;53.682;-2.690;2024-01-10T01:33:49;0;;;0;;
80619;SDS011;69979;53.682;-2.690;2024-01-10T01:36:14;1;;;1;;
80619;SDS011;69979;53.682;-2.690;2024-01-10T01:38:40;0;;;0;;
80619;SDS011;69979;53.682;-2.690;2024-01-10T01:41:06;1;;;0;;
80619;SDS011;69979;53.682;-2.690;2024-01-10T01:43:32;1;;;1;;
80619;SDS011;69979;53.682;-2.690;2024-01-10T01:45:58;1;;;1;;
80619;SDS011;69979;53.682;-2.690;2024-01-10T01:48:24;5;;;2;;
80619;SDS011;69979;53.682;-2.690;2024-01-10T01:50:51;1;;;1;;
80619;SDS011;69979;53.682;-2.690;2024-01-10T01:53:15;1;;;1;;
80619;SDS011;69979;53.682;-2.690;2024-01-10T01:55:41;1;;;1;;
80619;SDS011;69979;53.682;-2.690;2024-01-10T01:58:07;1;;;1;;
80619;SDS011;69979;53.682;-2.690;2024-01-10T02:00:32;1;;;1;;
80619;SDS011;69979;53.682;-2.690;2024-01-10T02:02:58;1;;;1;;
80619;SDS011;69979;53.682;-2.690;2024-01-10T02:05:24;1;;;1;;
80619;SDS011;69979;53.682;-2.690;2024-01-10T02:07:50;1;;;1;;
80619;SDS011;69979;53.682;-2.690;2024-01-10T02:10:15;1;;;1;;
80619;SDS011;69979;53.682;-2.690;2024-01-10T02:12:41;0;;;0;;
80619;SDS011;69979;53.682;-2.690;2024-01-10T02:15:07;1;;;1;;
80619;SDS011;69979;53.682;-2.690;2024-01-10T02:17:33;2;;;2;;
80619;SDS011;69979;53.682;-2.690;2024-01-10T02:22:24;1;;;1;;
80619;SDS011;69979;53.682;-2.690;2024-01-10T02:24:52;2;;;2;;
80619;SDS011;69979;53.682;-2.690;2024-01-10T02:27:16;1;;;1;;
80619;SDS011;69979;53.682;-2.690;2024-01-10T02:29:41;1;;;1;;
80619;SDS011;69979;53.682;-2.690;2024-01-10T02:32:07;1;;;1;;
80619;SDS011;69979;53.682;-2.690;2024-01-10T02:34:33;1;;;1;;
80619;SDS011;69979;53.682;-2.690;2024-01-10T02:36:59;1;;;1;;
80619;SDS011;69979;53.682;-2.690;2024-01-10T02:39:24;1;;;1;;
80619;SDS011;69979;53.682;-2.690;2024-01-10T02:41:51;0;;;0;;
80619;SDS011;69979;53.682;-2.690;2024-01-10T02:44:16;1;;;1;;
80619;SDS011;69979;53.682;-2.690;2024-01-10T02:46:42;1;;;1;;
80619;SDS011;69979;53.682;-2.690;2024-01-10T02:49:07;0;;;0;;
80619;SDS011;69979;53.682;-2.690;2024-01-10T02:51:34;1;;;1;;
80619;SDS011;69979;53.682;-2.690;2024-01-10T02:53:59;2;;;2;;
80619;SDS011;69979;53.682;-2.690;2024-01-10T02:56:25;1;;;1;;
80619;SDS011;69979;53.682;-2.690;2024-01-10T02:58:51;1;;;1;;
80619;SDS011;69979;53.682;-2.690;2024-01-10T03:01:16;1;;;1;;
80619;SDS011;69979;53.682;-2.690;2024-01-10T03:03:42;1;;;1;;
80619;SDS011;69979;53.682;-2.690;2024-01-10T03:06:08;2;;;2;;
80619;SDS011;69979;53.682;-2.690;2024-01-10T03:08:34;2;;;2;;
80619;SDS011;69979;53.682;-2.690;2024-01-10T03:10:59;1;;;1;;
80619;SDS011;69979;53.682;-2.690;2024-01-10T03:13:25;2;;;2;;
80619;SDS011;69979;53.682;-2.690;2024-01-10T03:15:51;2;;;2;;
80619;SDS011;69979;53.682;-2.690;2024-01-10T03:18:17;3;;;3;;
80619;SDS011;69979;53.682;-2.690;2024-01-10T03:20:43;2;;;2;;
80619;SDS011;69979;53.682;-2.690;2024-01-10T03:23:08;2;;;2;;
80619;SDS011;69979;53.682;-2.690;2024-01-10T03:25:34;3;;;3;;
80619;SDS011;69979;53.682;-2.690;2024-01-10T03:28:00;2;;;2;;
80619;SDS011;69979;53.682;-2.690;2024-01-10T03:30:27;2;;;2;;
80619;SDS011;69979;53.682;-2.690;2024-01-10T03:32:51;3;;;2;;
80619;SDS011;69979;53.682;-2.690;2024-01-10T03:35:17;1;;;1;;
80619;SDS011;69979;53.682;-2.690;2024-01-10T03:37:43;2;;;2;;
80619;SDS011;69979;53.682;-2.690;2024-01-10T03:40:09;3;;;3;;
80619;SDS011;69979;53.682;-2.690;2024-01-10T03:42:35;3;;;3;;
80619;SDS011;69979;53.682;-2.690;2024-01-10T03:45:01;3;;;3;;
80619;SDS011;69979;53.682;-2.690;2024-01-10T03:47:26;2;;;2;;
80619;SDS011;69979;53.682;-2.690;2024-01-10T03:49:52;2;;;1;;
80619;SDS011;69979;53.682;-2.690;2024-01-10T03:52:18;3;;;3;;
80619;SDS011;69979;53.682;-2.690;2024-01-10T03:54:44;3;;;3;;
80619;SDS011;69979;53.682;-2.690;2024-01-10T03:57:09;2;;;2;;
80619;SDS011;69979;53.682;-2.690;2024-01-10T03:59:35;2;;;2;;
80619;SDS011;69979;53.682;-2.690;2024-01-10T04:02:01;3;;;3;;
80619;SDS011;69979;53.682;-2.690;2024-01-10T04:04:27;3;;;2;;
80619;SDS011;69979;53.682;-2.690;2024-01-10T04:06:52;2;;;2;;
80619;SDS011;69979;53.682;-2.690;2024-01-10T04:09:18;2;;;2;;
80619;SDS011;69979;53.682;-2.690;2024-01-10T04:11:44;3;;;3;;
80619;SDS011;69979;53.682;-2.690;2024-01-10T04:14:10;5;;;5;;
80619;SDS011;69979;53.682;-2.690;2024-01-10T04:16:36;3;;;2;;
80619;SDS011;69979;53.682;-2.690;2024-01-10T04:19:01;2;;;2;;
80619;SDS011;69979;53.682;-2.690;2024-01-10T04:21:27;2;;;2;;
80619;SDS011;69979;53.682;-2.690;2024-01-10T04:23:53;1;;;1;;
80619;SDS011;69979;53.682;-2.690;2024-01-10T04:26:19;2;;;2;;
80619;SDS011;69979;53.682;-2.690;2024-01-10T04:28:45;2;;;2;;
80619;SDS011;69979;53.682;-2.690;2024-01-10T04:31:10;2;;;2;;
80619;SDS011;69979;53.682;-2.690;2024-01-10T04:33:36;2;;;2;;
80619;SDS011;69979;53.682;-2.690;2024-01-10T04:36:02;2;;;2;;
80619;SDS011;69979;53.682;-2.690;2024-01-10T04:38:28;3;;;3;;
80619;SDS011;69979;53.682;-2.690;2024-01-10T04:40:54;2;;;2;;
80619;SDS011;69979;53.682;-2.690;2024-01-10T04:43:19;2;;;2;;
80619;SDS011;69979;53.682;-2.690;2024-01-10T04:45:45;3;;;3;;
80619;SDS011;69979;53.682;-2.690;2024-01-10T04:48:11;2;;;2;;
80619;SDS011;69979;53.682;-2.690;2024-01-10T04:50:37;2;;;2;;
80619;SDS011;69979;53.682;-2.690;2024-01-10T04:53:03;3;;;3;;
80619;SDS011;69979;53.682;-2.690;2024-01-10T04:55:28;2;;;2;;
80619;SDS011;69979;53.682;-2.690;2024-01-10T04:57:54;3;;;3;;
80619;SDS011;69979;53.682;-2.690;2024-01-10T05:00:20;3;;;2;;
80619;SDS011;69979;53.682;-2.690;2024-01-10T05:02:46;3;;;2;;
80619;SDS011;69979;53.682;-2.690;2024-01-10T05:05:12;3;;;3;;
80619;SDS011;69979;53.682;-2.690;2024-01-10T05:07:37;3;;;3;;
80619;SDS011;69979;53.682;-2.690;2024-01-10T05:10:03;2;;;2;;
80619;SDS011;69979;53.682;-2.690;2024-01-10T05:12:29;3;;;3;;
80619;SDS011;69979;53.682;-2.690;2024-01-10T05:14:55;7;;;4;;
80619;SDS011;69979;53.682;-2.690;2024-01-10T05:17:20;3;;;3;;
80619;SDS011;69979;53.682;-2.690;2024-01-10T05:19:46;3;;;3;;
80619;SDS011;69979;53.682;-2.690;2024-01-10T05:22:12;4;;;3;;
80619;SDS011;69979;53.682;-2.690;2024-01-10T05:24:38;2;;;2;;
80619;SDS011;69979;53.682;-2.690;2024-01-10T05:27:04;3;;;3;;
80619;SDS011;69979;53.682;-2.690;2024-01-10T05:29:29;3;;;3;;
80619;SDS011;69979;53.682;-2.690;2024-01-10T05:31:55;2;;;2;;
80619;SDS011;69979;53.682;-2.690;2024-01-10T05:34:21;3;;;3;;
80619;SDS011;69979;53.682;-2.690;2024-01-10T05:36:46;2;;;2;;
80619;SDS011;69979;53.682;-2.690;2024-01-10T05:39:12;2;;;2;;
80619;SDS011;69979;53.682;-2.690;2024-01-10T05:41:38;2;;;2;;
80619;SDS011;69979;53.682;-2.690;2024-01-10T05:44:04;3;;;3;;
80619;SDS011;69979;53.682;-2.690;2024-01-10T05:46:29;2;;;2;;
80619;SDS011;69979;53.682;-2.690;2024-01-10T05:48:55;3;;;3;;
80619;SDS011;69979;53.682;-2.690;2024-01-10T05:51:21;1;;;1;;
80619;SDS011;69979;53.682;-2.690;2024-01-10T05:53:46;3;;;3;;
80619;SDS011;69979;53.682;-2.690;2024-01-10T05:56:12;3;;;3;;
80619;SDS011;69979;53.682;-2.690;2024-01-10T05:58:38;1;;;1;;
80619;SDS011;69979;53.682;-2.690;2024-01-10T06:01:04;2;;;2;;
80619;SDS011;69979;53.682;-2.690;2024-01-10T06:03:29;3;;;2;;
80619;SDS011;69979;53.682;-2.690;2024-01-10T06:05:55;3;;;3;;
80619;SDS011;69979;53.682;-2.690;2024-01-10T06:08:21;5;;;4;;
80619;SDS011;69979;53.682;-2.690;2024-01-10T06:10:47;2;;;2;;
80619;SDS011;69979;53.682;-2.690;2024-01-10T06:13:12;4;;;4;;
80619;SDS011;69979;53.682;-2.690;2024-01-10T06:15:38;3;;;3;;
80619;SDS011;69979;53.682;-2.690;2024-01-10T06:18:04;4;;;3;;
80619;SDS011;69979;53.682;-2.690;2024-01-10T06:20:29;2;;;2;;
80619;SDS011;69979;53.682;-2.690;2024-01-10T06:22:55;2;;;2;;
80619;SDS011;69979;53.682;-2.690;2024-01-10T06:25:21;2;;;2;;
80619;SDS011;69979;53.682;-2.690;2024-01-10T06:27:46;3;;;3;;
80619;SDS011;69979;53.682;-2.690;2024-01-10T06:30:12;3;;;3;;
80619;SDS011;69979;53.682;-2.690;2024-01-10T06:32:38;5;;;4;;
80619;SDS011;69979;53.682;-2.690;2024-01-10T06:35:04;4;;;4;;
80619;SDS011;69979;53.682;-2.690;2024-01-10T06:37:29;5;;;5;;
80619;SDS011;69979;53.682;-2.690;2024-01-10T06:39:55;4;;;4;;
80619;SDS011;69979;53.682;-2.690;2024-01-10T06:42:20;6;;;6;;
80619;SDS011;69979;53.682;-2.690;2024-01-10T06:44:46;5;;;5;;
80619;SDS011;69979;53.682;-2.690;2024-01-10T06:47:12;8;;;8;;
80619;SDS011;69979;53.682;-2.690;2024-01-10T06:49:38;12;;;11;;
80619;SDS011;69979;53.682;-2.690;2024-01-10T06:52:03;5;;;5;;
80619;SDS011;69979;53.682;-2.690;2024-01-10T06:54:28;9;;;8;;
80619;SDS011;69979;53.682;-2.690;2024-01-10T06:56:54;8;;;7;;
80619;SDS011;69979;53.682;-2.690;2024-01-10T06:59:20;5;;;5;;
80619;SDS011;69979;53.682;-2.690;2024-01-10T07:01:45;9;;;9;;
80619;SDS011;69979;53.682;-2.690;2024-01-10T07:04:11;4;;;4;;
80619;SDS011;69979;53.682;-2.690;2024-01-10T07:06:37;10;;;10;;
80619;SDS011;69979;53.682;-2.690;2024-01-10T07:09:03;6;;;6;;
80619;SDS011;69979;53.682;-2.690;2024-01-10T07:11:28;10;;;10;;
80619;SDS011;69979;53.682;-2.690;2024-01-10T07:13:54;8;;;8;;
80619;SDS011;69979;53.682;-2.690;2024-01-10T07:16:20;6;;;6;;
80619;SDS011;69979;53.682;-2.690;2024-01-10T07:18:46;6;;;6;;
80619;SDS011;69979;53.682;-2.690;2024-01-10T07:21:12;10;;;9;;
80619;SDS011;69979;53.682;-2.690;2024-01-10T07:23:38;13;;;11;;
80619;SDS011;69979;53.682;-2.690;2024-01-10T07:26:04;4;;;4;;
80619;SDS011;69979;53.682;-2.690;2024-01-10T07:28:29;12;;;12;;
80619;SDS011;69979;53.682;-2.690;2024-01-10T07:30:55;8;;;7;;
80619;SDS011;69979;53.682;-2.690;2024-01-10T07:33:21;9;;;9;;
80619;SDS011;69979;53.682;-2.690;2024-01-10T07:35:46;8;;;7;;
80619;SDS011;69979;53.682;-2.690;2024-01-10T07:38:12;8;;;8;;
80619;SDS011;69979;53.682;-2.690;2024-01-10T07:40:38;9;;;9;;
80619;SDS011;69979;53.682;-2.690;2024-01-10T07:43:04;8;;;8;;
80619;SDS011;69979;53.682;-2.690;2024-01-10T07:45:29;6;;;4;;
80619;SDS011;69979;53.682;-2.690;2024-01-10T07:47:55;7;;;6;;
80619;SDS011;69979;53.682;-2.690;2024-01-10T07:50:21;3;;;3;;
80619;SDS011;69979;53.682;-2.690;2024-01-10T07:52:47;9;;;9;;
80619;SDS011;69979;53.682;-2.690;2024-01-10T07:55:12;10;;;9;;
80619;SDS011;69979;53.682;-2.690;2024-01-10T07:57:38;6;;;6;;
80619;SDS011;69979;53.682;-2.690;2024-01-10T08:00:04;4;;;4;;
80619;SDS011;69979;53.682;-2.690;2024-01-10T08:02:29;9;;;9;;
80619;SDS011;69979;53.682;-2.690;2024-01-10T08:04:55;4;;;4;;
80619;SDS011;69979;53.682;-2.690;2024-01-10T08:07:21;4;;;4;;
80619;SDS011;69979;53.682;-2.690;2024-01-10T08:09:47;8;;;7;;
80619;SDS011;69979;53.682;-2.690;2024-01-10T08:12:12;8;;;8;;
80619;SDS011;69979;53.682;-2.690;2024-01-10T08:14:38;11;;;11;;
80619;SDS011;69979;53.682;-2.690;2024-01-10T08:17:04;12;;;10;;
80619;SDS011;69979;53.682;-2.690;2024-01-10T08:19:29;15;;;14;;
80619;SDS011;69979;53.682;-2.690;2024-01-10T08:21:55;6;;;6;;
80619;SDS011;69979;53.682;-2.690;2024-01-10T08:24:21;9;;;9;;
80619;SDS011;69979;53.682;-2.690;2024-01-10T08:26:46;8;;;8;;
80619;SDS011;69979;53.682;-2.690;2024-01-10T08:29:12;9;;;9;;
80619;SDS011;69979;53.682;-2.690;2024-01-10T08:31:38;11;;;11;;
80619;SDS011;69979;53.682;-2.690;2024-01-10T08:34:04;15;;;15;;
80619;SDS011;69979;53.682;-2.690;2024-01-10T08:36:29;7;;;7;;
80619;SDS011;69979;53.682;-2.690;2024-01-10T08:38:55;7;;;7;;
80619;SDS011;69979;53.682;-2.690;2024-01-10T08:41:21;8;;;7;;
80619;SDS011;69979;53.682;-2.690;2024-01-10T08:43:47;8;;;8;;
80619;SDS011;69979;53.682;-2.690;2024-01-10T08:46:12;8;;;8;;
80619;SDS011;69979;53.682;-2.690;2024-01-10T08:48:38;4;;;4;;
80619;SDS011;69979;53.682;-2.690;2024-01-10T08:51:04;4;;;4;;
80619;SDS011;69979;53.682;-2.690;2024-01-10T08:53:29;6;;;6;;
80619;SDS011;69979;53.682;-2.690;2024-01-10T08:55:55;8;;;8;;
80619;SDS011;69979;53.682;-2.690;2024-01-10T08:58:21;6;;;6;;
80619;SDS011;69979;53.682;-2.690;2024-01-10T09:00:47;4;;;4;;
80619;SDS011;69979;53.682;-2.690;2024-01-10T09:03:12;4;;;4;;
80619;SDS011;69979;53.682;-2.690;2024-01-10T09:05:38;7;;;6;;
80619;SDS011;69979;53.682;-2.690;2024-01-10T09:08:04;3;;;3;;
80619;SDS011;69979;53.682;-2.690;2024-01-10T09:10:30;5;;;4;;
80619;SDS011;69979;53.682;-2.690;2024-01-10T09:12:57;7;;;7;;
80619;SDS011;69979;53.682;-2.690;2024-01-10T09:15:21;7;;;7;;
80619;SDS011;69979;53.682;-2.690;2024-01-10T09:17:47;8;;;7;;
80619;SDS011;69979;53.682;-2.690;2024-01-10T09:20:14;9;;;7;;
80619;SDS011;69979;53.682;-2.690;2024-01-10T09:22:38;9;;;6;;
80619;SDS011;69979;53.682;-2.690;2024-01-10T09:25:05;7;;;5;;
80619;SDS011;69979;53.682;-2.690;2024-01-10T09:27:30;4;;;4;;
80619;SDS011;69979;53.682;-2.690;2024-01-10T09:29:55;6;;;4;;
80619;SDS011;69979;53.682;-2.690;2024-01-10T09:32:21;4;;;4;;
80619;SDS011;69979;53.682;-2.690;2024-01-10T09:34:47;10;;;7;;
80619;SDS011;69979;53.682;-2.690;2024-01-10T09:37:13;5;;;5;;
80619;SDS011;69979;53.682;-2.690;2024-01-10T09:39:38;5;;;5;;
80619;SDS011;69979;53.682;-2.690;2024-01-10T09:42:04;10;;;10;;
80619;SDS011;69979;53.682;-2.690;2024-01-10T09:44:30;4;;;4;;
80619;SDS011;69979;53.682;-2.690;2024-01-10T09:46:55;6;;;6;;
80619;SDS011;69979;53.682;-2.690;2024-01-10T09:49:21;4;;;3;;
80619;SDS011;69979;53.682;-2.690;2024-01-10T09:51:48;3;;;3;;
80619;SDS011;69979;53.682;-2.690;2024-01-10T09:54:13;4;;;4;;
80619;SDS011;69979;53.682;-2.690;2024-01-10T09:56:38;5;;;4;;
80619;SDS011;69979;53.682;-2.690;2024-01-10T09:59:04;5;;;5;;
80619;SDS011;69979;53.682;-2.690;2024-01-10T10:01:30;5;;;5;;
80619;SDS011;69979;53.682;-2.690;2024-01-10T10:03:55;4;;;4;;
80619;SDS011;69979;53.682;-2.690;2024-01-10T10:06:21;7;;;7;;
80619;SDS011;69979;53.682;-2.690;2024-01-10T10:08:47;4;;;4;;
80619;SDS011;69979;53.682;-2.690;2024-01-10T10:11:12;5;;;5;;
80619;SDS011;69979;53.682;-2.690;2024-01-10T10:13:38;5;;;5;;
80619;SDS011;69979;53.682;-2.690;2024-01-10T10:16:04;5;;;5;;
80619;SDS011;69979;53.682;-2.690;2024-01-10T10:18:30;5;;;5;;
80619;SDS011;69979;53.682;-2.690;2024-01-10T10:23:21;8;;;8;;
80619;SDS011;69979;53.682;-2.690;2024-01-10T10:25:47;9;;;9;;
80619;SDS011;69979;53.682;-2.690;2024-01-10T10:28:12;7;;;7;;
80619;SDS011;69979;53.682;-2.690;2024-01-10T10:30:38;3;;;3;;
80619;SDS011;69979;53.682;-2.690;2024-01-10T10:33:05;5;;;4;;
80619;SDS011;69979;53.682;-2.690;2024-01-10T10:35:30;4;;;4;;
80619;SDS011;69979;53.682;-2.690;2024-01-10T10:37:55;4;;;4;;
80619;SDS011;69979;53.682;-2.690;2024-01-10T10:40:21;5;;;5;;
80619;SDS011;69979;53.682;-2.690;2024-01-10T10:42:47;5;;;5;;
80619;SDS011;69979;53.682;-2.690;2024-01-10T10:45:14;4;;;4;;
80619;SDS011;69979;53.682;-2.690;2024-01-10T10:47:38;7;;;7;;
80619;SDS011;69979;53.682;-2.690;2024-01-10T10:50:04;8;;;8;;
80619;SDS011;69979;53.682;-2.690;2024-01-10T10:52:30;7;;;5;;
80619;SDS011;69979;53.682;-2.690;2024-01-10T10:54:55;5;;;5;;
80619;SDS011;69979;53.682;-2.690;2024-01-10T10:57:21;5;;;5;;
80619;SDS011;69979;53.682;-2.690;2024-01-10T10:59:47;5;;;5;;
80619;SDS011;69979;53.682;-2.690;2024-01-10T11:02:13;5;;;5;;
80619;SDS011;69979;53.682;-2.690;2024-01-10T11:04:39;7;;;5;;
80619;SDS011;69979;53.682;-2.690;2024-01-10T11:07:05;7;;;7;;
80619;SDS011;69979;53.682;-2.690;2024-01-10T11:09:30;8;;;8;;
80619;SDS011;69979;53.682;-2.690;2024-01-10T11:12:01;4;;;4;;
80619;SDS011;69979;53.682;-2.690;2024-01-10T11:14:25;7;;;7;;
80619;SDS011;69979;53.682;-2.690;2024-01-10T11:16:55;8;;;8;;
80619;SDS011;69979;53.682;-2.690;2024-01-10T11:21:42;7;;;7;;
80619;SDS011;69979;53.682;-2.690;2024-01-10T11:24:05;11;;;11;;
80619;SDS011;69979;53.682;-2.690;2024-01-10T11:26:31;14;;;11;;
80619;SDS011;69979;53.682;-2.690;2024-01-10T11:28:56;13;;;11;;
80619;SDS011;69979;53.682;-2.690;2024-01-10T11:31:27;5;;;5;;
80619;SDS011;69979;53.682;-2.690;2024-01-10T11:33:47;5;;;5;;
80619;SDS011;69979;53.682;-2.690;2024-01-10T11:36:14;7;;;7;;
80619;SDS011;69979;53.682;-2.690;2024-01-10T11:38:41;5;;;5;;
80619;SDS011;69979;53.682;-2.690;2024-01-10T11:41:04;4;;;4;;
80619;SDS011;69979;53.682;-2.690;2024-01-10T11:43:30;5;;;4;;
80619;SDS011;69979;53.682;-2.690;2024-01-10T11:45:56;6;;;6;;
80619;SDS011;69979;53.682;-2.690;2024-01-10T11:48:27;4;;;4;;
80619;SDS011;69979;53.682;-2.690;2024-01-10T11:50:47;6;;;4;;
80619;SDS011;69979;53.682;-2.690;2024-01-10T11:53:13;4;;;4;;
80619;SDS011;69979;53.682;-2.690;2024-01-10T11:55:47;4;;;4;;
80619;SDS011;69979;53.682;-2.690;2024-01-10T11:58:08;4;;;4;;
80619;SDS011;69979;53.682;-2.690;2024-01-10T12:00:30;3;;;3;;
80619;SDS011;69979;53.682;-2.690;2024-01-10T12:02:56;4;;;4;;
80619;SDS011;69979;53.682;-2.690;2024-01-10T12:05:22;3;;;3;;
80619;SDS011;69979;53.682;-2.690;2024-01-10T12:07:50;3;;;3;;
80619;SDS011;69979;53.682;-2.690;2024-01-10T12:10:13;3;;;3;;
80619;SDS011;69979;53.682;-2.690;2024-01-10T12:12:39;3;;;3;;
80619;SDS011;69979;53.682;-2.690;2024-01-10T12:15:05;3;;;3;;
80619;SDS011;69979;53.682;-2.690;2024-01-10T12:17:30;2;;;2;;
80619;SDS011;69979;53.682;-2.690;2024-01-10T12:19:56;4;;;4;;
80619;SDS011;69979;53.682;-2.690;2024-01-10T12:22:22;4;;;4;;
80619;SDS011;69979;53.682;-2.690;2024-01-10T12:24:48;3;;;3;;
80619;SDS011;69979;53.682;-2.690;2024-01-10T12:27:15;3;;;3;;
80619;SDS011;69979;53.682;-2.690;2024-01-10T12:29:41;3;;;2;;
80619;SDS011;69979;53.682;-2.690;2024-01-10T12:32:07;4;;;4;;
80619;SDS011;69979;53.682;-2.690;2024-01-10T12:34:32;3;;;3;;
80619;SDS011;69979;53.682;-2.690;2024-01-10T12:36:58;4;;;3;;
80619;SDS011;69979;53.682;-2.690;2024-01-10T12:39:24;2;;;2;;
80619;SDS011;69979;53.682;-2.690;2024-01-10T12:41:50;4;;;4;;
80619;SDS011;69979;53.682;-2.690;2024-01-10T12:44:15;5;;;4;;
80619;SDS011;69979;53.682;-2.690;2024-01-10T12:46:49;3;;;3;;
80619;SDS011;69979;53.682;-2.690;2024-01-10T12:49:06;5;;;5;;
80619;SDS011;69979;53.682;-2.690;2024-01-10T12:51:32;4;;;4;;
80619;SDS011;69979;53.682;-2.690;2024-01-10T12:53:58;3;;;3;;
80619;SDS011;69979;53.682;-2.690;2024-01-10T12:56:24;2;;;2;;
80619;SDS011;69979;53.682;-2.690;2024-01-10T12:58:49;3;;;3;;
80619;SDS011;69979;53.682;-2.690;2024-01-10T13:01:15;5;;;5;;
80619;SDS011;69979;53.682;-2.690;2024-01-10T13:03:40;3;;;3;;
80619;SDS011;69979;53.682;-2.690;2024-01-10T13:06:06;2;;;2;;
80619;SDS011;69979;53.682;-2.690;2024-01-10T13:08:32;2;;;2;;
80619;SDS011;69979;53.682;-2.690;2024-01-10T13:10:58;3;;;3;;
80619;SDS011;69979;53.682;-2.690;2024-01-10T13:13:23;3;;;3;;
80619;SDS011;69979;53.682;-2.690;2024-01-10T13:15:49;3;;;3;;
80619;SDS011;69979;53.682;-2.690;2024-01-10T13:18:15;4;;;4;;
80619;SDS011;69979;53.682;-2.690;2024-01-10T13:20:41;3;;;3;;
80619;SDS011;69979;53.682;-2.690;2024-01-10T13:23:06;4;;;3;;
80619;SDS011;69979;53.682;-2.690;2024-01-10T13:25:32;3;;;3;;
80619;SDS011;69979;53.682;-2.690;2024-01-10T13:27:57;3;;;3;;
80619;SDS011;69979;53.682;-2.690;2024-01-10T13:30:23;2;;;2;;
80619;SDS011;69979;53.682;-2.690;2024-01-10T13:32:49;2;;;2;;
80619;SDS011;69979;53.682;-2.690;2024-01-10T13:35:15;1;;;1;;
80619;SDS011;69979;53.682;-2.690;2024-01-10T13:37:40;2;;;2;;
80619;SDS011;69979;53.682;-2.690;2024-01-10T13:40:06;2;;;2;;
80619;SDS011;69979;53.682;-2.690;2024-01-10T13:42:32;3;;;2;;
80619;SDS011;69979;53.682;-2.690;2024-01-10T13:44:57;1;;;1;;
80619;SDS011;69979;53.682;-2.690;2024-01-10T13:47:23;5;;;4;;
80619;SDS011;69979;53.682;-2.690;2024-01-10T13:49:49;4;;;4;;
80619;SDS011;69979;53.682;-2.690;2024-01-10T13:52:14;1;;;1;;
80619;SDS011;69979;53.682;-2.690;2024-01-10T13:54:40;2;;;2;;
80619;SDS011;69979;53.682;-2.690;2024-01-10T13:57:06;1;;;1;;
80619;SDS011;69979;53.682;-2.690;2024-01-10T13:59:31;1;;;1;;
80619;SDS011;69979;53.682;-2.690;2024-01-10T14:01:57;1;;;1;;
80619;SDS011;69979;53.682;-2.690;2024-01-10T14:04:23;1;;;1;;
80619;SDS011;69979;53.682;-2.690;2024-01-10T14:06:49;1;;;1;;
80619;SDS011;69979;53.682;-2.690;2024-01-10T14:09:14;1;;;1;;
80619;SDS011;69979;53.682;-2.690;2024-01-10T14:11:40;3;;;3;;
80619;SDS011;69979;53.682;-2.690;2024-01-10T14:14:06;1;;;1;;
80619;SDS011;69979;53.682;-2.690;2024-01-10T14:16:32;1;;;1;;
80619;SDS011;69979;53.682;-2.690;2024-01-10T14:18:57;0;;;0;;
80619;SDS011;69979;53.682;-2.690;2024-01-10T14:21:23;1;;;1;;
80619;SDS011;69979;53.682;-2.690;2024-01-10T14:23:49;0;;;0;;
80619;SDS011;69979;53.682;-2.690;2024-01-10T14:26:15;2;;;1;;
80619;SDS011;69979;53.682;-2.690;2024-01-10T14:28:40;1;;;1;;
80619;SDS011;69979;53.682;-2.690;2024-01-10T14:31:06;1;;;1;;
80619;SDS011;69979;53.682;-2.690;2024-01-10T14:33:31;2;;;1;;
80619;SDS011;69979;53.682;-2.690;2024-01-10T14:35:57;3;;;2;;
80619;SDS011;69979;53.682;-2.690;2024-01-10T14:38:23;2;;;2;;
80619;SDS011;69979;53.682;-2.690;2024-01-10T14:40:48;1;;;1;;
80619;SDS011;69979;53.682;-2.690;2024-01-10T14:43:14;2;;;2;;
80619;SDS011;69979;53.682;-2.690;2024-01-10T14:45:40;1;;;1;;
80619;SDS011;69979;53.682;-2.690;2024-01-10T14:48:06;1;;;1;;
80619;SDS011;69979;53.682;-2.690;2024-01-10T14:50:31;1;;;1;;
80619;SDS011;69979;53.682;-2.690;2024-01-10T14:52:57;1;;;1;;
80619;SDS011;69979;53.682;-2.690;2024-01-10T14:55:23;1;;;1;;
80619;SDS011;69979;53.682;-2.690;2024-01-10T14:57:48;1;;;1;;
80619;SDS011;69979;53.682;-2.690;2024-01-10T15:00:14;1;;;1;;
80619;SDS011;69979;53.682;-2.690;2024-01-10T15:02:40;2;;;2;;
80619;SDS011;69979;53.682;-2.690;2024-01-10T15:05:06;0;;;0;;
80619;SDS011;69979;53.682;-2.690;2024-01-10T15:07:31;1;;;1;;
80619;SDS011;69979;53.682;-2.690;2024-01-10T15:09:57;4;;;4;;
80619;SDS011;69979;53.682;-2.690;2024-01-10T15:12:23;1;;;1;;
80619;SDS011;69979;53.682;-2.690;2024-01-10T15:14:48;1;;;1;;
80619;SDS011;69979;53.682;-2.690;2024-01-10T15:17:14;2;;;2;;
80619;SDS011;69979;53.682;-2.690;2024-01-10T15:19:40;2;;;2;;
80619;SDS011;69979;53.682;-2.690;2024-01-10T15:22:05;2;;;2;;
80619;SDS011;69979;53.682;-2.690;2024-01-10T15:24:31;1;;;1;;
80619;SDS011;69979;53.682;-2.690;2024-01-10T15:26:57;3;;;2;;
80619;SDS011;69979;53.682;-2.690;2024-01-10T15:29:22;2;;;2;;
80619;SDS011;69979;53.682;-2.690;2024-01-10T15:31:48;2;;;2;;
80619;SDS011;69979;53.682;-2.690;2024-01-10T15:34:14;2;;;2;;
80619;SDS011;69979;53.682;-2.690;2024-01-10T15:36:40;2;;;2;;
80619;SDS011;69979;53.682;-2.690;2024-01-10T15:39:05;2;;;2;;
80619;SDS011;69979;53.682;-2.690;2024-01-10T15:41:31;2;;;2;;
80619;SDS011;69979;53.682;-2.690;2024-01-10T15:43:57;3;;;3;;
80619;SDS011;69979;53.682;-2.690;2024-01-10T15:46:22;3;;;2;;
80619;SDS011;69979;53.682;-2.690;2024-01-10T15:48:48;3;;;3;;
80619;SDS011;69979;53.682;-2.690;2024-01-10T15:51:14;3;;;3;;
80619;SDS011;69979;53.682;-2.690;2024-01-10T15:53:39;5;;;4;;
80619;SDS011;69979;53.682;-2.690;2024-01-10T15:56:05;5;;;5;;